createdAt,value
2018-06-19T00:00:09.715Z,2.95
2018-06-19T00:00:22.109Z,2.95
2018-06-19T00:00:34.535Z,2.95
2018-06-19T00:00:47.005Z,2.95
2018-06-19T00:00:59.461Z,2.95
2018-06-19T00:01:12.044Z,2.95
2018-06-19T00:01:24.469Z,2.95
2018-06-19T00:01:36.861Z,2.95
2018-06-19T00:01:49.262Z,2.95
2018-06-19T00:02:01.705Z,2.95
2018-06-19T00:02:14.119Z,2.95
2018-06-19T00:02:26.547Z,2.95
2018-06-19T00:02:39.062Z,2.95
2018-06-19T00:02:51.450Z,2.95
2018-06-19T00:03:03.892Z,2.95
2018-06-19T00:03:16.348Z,2.95
2018-06-19T00:03:28.735Z,2.95
2018-06-19T00:03:41.148Z,2.95
2018-06-19T00:03:53.553Z,2.95
2018-06-19T00:04:05.981Z,2.95
2018-06-19T00:04:18.382Z,2.95
2018-06-19T00:04:30.785Z,2.95
2018-06-19T00:04:43.196Z,2.95
2018-06-19T00:04:55.658Z,2.95
2018-06-19T00:05:08.083Z,2.95
2018-06-19T00:05:20.470Z,2.95
2018-06-19T00:05:32.879Z,2.95
2018-06-19T00:05:45.277Z,2.95
2018-06-19T00:05:57.701Z,2.95
2018-06-19T00:06:10.097Z,2.95
2018-06-19T00:06:22.510Z,2.95
2018-06-19T00:06:35.286Z,2.95
2018-06-19T00:06:47.688Z,2.95
2018-06-19T00:07:00.085Z,2.95
2018-06-19T00:07:12.519Z,2.95
2018-06-19T00:07:25.005Z,2.95
2018-06-19T00:07:37.401Z,2.95
2018-06-19T00:07:49.864Z,2.95
2018-06-19T00:08:02.267Z,2.95
2018-06-19T00:08:14.664Z,2.95
2018-06-19T00:08:27.080Z,2.95
2018-06-19T00:08:39.469Z,2.95
2018-06-19T00:08:51.911Z,2.95
2018-06-19T00:09:04.340Z,2.95
2018-06-19T00:09:16.794Z,2.95
2018-06-19T00:09:29.200Z,2.92
2018-06-19T00:09:41.618Z,2.92
2018-06-19T00:09:54.021Z,2.92
2018-06-19T00:10:06.425Z,2.92
2018-06-19T00:10:18.841Z,2.92
2018-06-19T00:10:31.284Z,2.92
2018-06-19T00:10:43.674Z,2.92
2018-06-19T00:10:56.098Z,2.92
2018-06-19T00:11:08.481Z,2.92
2018-06-19T00:11:20.884Z,2.92
2018-06-19T00:11:33.472Z,2.92
2018-06-19T00:11:45.893Z,2.92
2018-06-19T00:11:58.299Z,2.92
2018-06-19T00:12:10.696Z,2.92
2018-06-19T00:12:23.113Z,2.92
2018-06-19T00:12:35.495Z,2.92
2018-06-19T00:12:47.904Z,2.92
2018-06-19T00:13:00.310Z,2.92
2018-06-19T00:13:12.706Z,2.92
2018-06-19T00:13:25.143Z,2.92
2018-06-19T00:13:37.564Z,2.92
2018-06-19T00:13:49.973Z,2.92
2018-06-19T00:14:02.372Z,2.92
2018-06-19T00:14:14.769Z,2.92
2018-06-19T00:14:27.188Z,2.92
2018-06-19T00:14:39.597Z,2.92
2018-06-19T00:14:51.985Z,2.92
2018-06-19T00:15:04.385Z,2.92
2018-06-19T00:15:16.793Z,2.92
2018-06-19T00:15:29.254Z,2.92
2018-06-19T00:15:41.654Z,2.92
2018-06-19T00:15:54.089Z,2.92
2018-06-19T00:16:06.531Z,2.92
2018-06-19T00:16:18.994Z,2.92
2018-06-19T00:16:31.448Z,2.92
2018-06-19T00:16:43.831Z,2.92
2018-06-19T00:16:56.235Z,2.92
2018-06-19T00:17:08.635Z,2.92
2018-06-19T00:17:21.020Z,2.92
2018-06-19T00:17:33.411Z,2.92
2018-06-19T00:17:45.837Z,2.92
2018-06-19T00:17:58.462Z,2.92
2018-06-19T00:18:10.863Z,2.92
2018-06-19T00:18:23.318Z,2.92
2018-06-19T00:18:35.729Z,2.92
2018-06-19T00:18:48.137Z,2.92
2018-06-19T00:19:00.537Z,2.92
2018-06-19T00:19:13.078Z,2.92
2018-06-19T00:19:25.485Z,2.88
2018-06-19T00:19:37.874Z,2.88
2018-06-19T00:19:50.272Z,2.88
2018-06-19T00:20:02.682Z,2.88
2018-06-19T00:20:15.094Z,2.88
2018-06-19T00:20:27.476Z,2.88
2018-06-19T00:20:39.881Z,2.88
2018-06-19T00:20:52.277Z,2.88
2018-06-19T00:21:04.832Z,2.88
2018-06-19T00:21:17.222Z,2.88
2018-06-19T00:21:29.626Z,2.88
2018-06-19T00:21:42.096Z,2.88
2018-06-19T00:21:54.477Z,2.88
2018-06-19T00:22:06.886Z,2.88
2018-06-19T00:22:19.297Z,2.88
2018-06-19T00:22:31.711Z,2.88
2018-06-19T00:22:44.123Z,2.88
2018-06-19T00:22:56.517Z,2.88
2018-06-19T00:23:08.904Z,2.88
2018-06-19T00:23:21.360Z,2.88
2018-06-19T00:23:33.745Z,2.88
2018-06-19T00:23:46.175Z,2.88
2018-06-19T00:23:58.700Z,2.88
2018-06-19T00:24:11.112Z,2.88
2018-06-19T00:24:23.489Z,2.88
2018-06-19T00:24:35.897Z,2.88
2018-06-19T00:24:48.279Z,2.88
2018-06-19T00:25:00.660Z,2.88
2018-06-19T00:25:13.058Z,2.88
2018-06-19T00:25:25.465Z,2.88
2018-06-19T00:25:37.839Z,2.88
2018-06-19T00:25:50.229Z,2.88
2018-06-19T00:26:02.616Z,2.88
2018-06-19T00:26:15.029Z,2.88
2018-06-19T00:26:27.460Z,2.88
2018-06-19T00:26:39.872Z,2.88
2018-06-19T00:26:52.300Z,2.88
2018-06-19T00:27:04.991Z,2.88
2018-06-19T00:27:17.388Z,2.88
2018-06-19T00:27:29.811Z,2.88
2018-06-19T00:27:42.198Z,2.88
2018-06-19T00:27:54.848Z,2.88
2018-06-19T00:28:07.254Z,2.88
2018-06-19T00:28:19.644Z,2.88
2018-06-19T00:28:32.039Z,2.88
2018-06-19T00:28:44.453Z,2.88
2018-06-19T00:28:56.898Z,2.88
2018-06-19T00:29:09.299Z,2.88
2018-06-19T00:29:21.751Z,3
2018-06-19T00:29:34.154Z,3
2018-06-19T00:29:46.666Z,3
2018-06-19T00:29:59.056Z,3
2018-06-19T00:30:11.480Z,3
2018-06-19T00:30:23.865Z,3
2018-06-19T00:30:36.256Z,3
2018-06-19T00:30:48.643Z,3
2018-06-19T00:31:01.054Z,3
2018-06-19T00:31:13.466Z,3
2018-06-19T00:31:25.851Z,3
2018-06-19T00:31:38.388Z,3
2018-06-19T00:31:50.879Z,3
2018-06-19T00:32:03.295Z,3
2018-06-19T00:32:15.702Z,3
2018-06-19T00:32:28.109Z,3
2018-06-19T00:32:40.513Z,3
2018-06-19T00:32:52.931Z,3
2018-06-19T00:33:05.327Z,3
2018-06-19T00:33:17.743Z,3
2018-06-19T00:33:30.169Z,3
2018-06-19T00:33:42.573Z,3
2018-06-19T00:33:54.986Z,3
2018-06-19T00:34:07.411Z,3
2018-06-19T00:34:19.830Z,3
2018-06-19T00:34:32.236Z,3
2018-06-19T00:34:44.720Z,3
2018-06-19T00:34:57.127Z,3
2018-06-19T00:35:09.546Z,3
2018-06-19T00:35:21.989Z,3
2018-06-19T00:35:34.412Z,3
2018-06-19T00:35:46.825Z,3
2018-06-19T00:35:59.267Z,3
2018-06-19T00:36:11.687Z,3
2018-06-19T00:36:24.099Z,3
2018-06-19T00:36:36.493Z,3
2018-06-19T00:36:48.898Z,3
2018-06-19T00:37:01.330Z,3
2018-06-19T00:37:13.783Z,3
2018-06-19T00:37:26.190Z,3
2018-06-19T00:37:38.569Z,3
2018-06-19T00:37:50.974Z,3
2018-06-19T00:38:03.357Z,3
2018-06-19T00:38:15.757Z,3
2018-06-19T00:38:28.158Z,3
2018-06-19T00:38:40.561Z,3
2018-06-19T00:38:52.953Z,3
2018-06-19T00:39:05.364Z,3
2018-06-19T00:39:17.764Z,3
2018-06-19T00:39:30.168Z,3.12
2018-06-19T00:39:42.701Z,3.12
2018-06-19T00:39:55.113Z,3.12
2018-06-19T00:40:07.517Z,3.12
2018-06-19T00:40:19.916Z,3.12
2018-06-19T00:40:32.324Z,3.12
2018-06-19T00:40:44.710Z,3.12
2018-06-19T00:40:57.088Z,3.12
2018-06-19T00:41:09.485Z,3.12
2018-06-19T00:41:21.877Z,3.12
2018-06-19T00:41:34.297Z,3.12
2018-06-19T00:41:46.750Z,3.12
2018-06-19T00:41:59.289Z,3.12
2018-06-19T00:42:11.691Z,3.12
2018-06-19T00:42:24.129Z,3.12
2018-06-19T00:42:36.531Z,3.12
2018-06-19T00:42:48.941Z,3.12
2018-06-19T00:43:01.336Z,3.12
2018-06-19T00:43:13.758Z,3.12
2018-06-19T00:43:26.165Z,3.12
2018-06-19T00:43:38.568Z,3.12
2018-06-19T00:43:50.971Z,3.12
2018-06-19T00:44:03.370Z,3.12
2018-06-19T00:44:15.776Z,3.12
2018-06-19T00:44:28.186Z,3.12
2018-06-19T00:44:40.572Z,3.12
2018-06-19T00:44:52.972Z,3.12
2018-06-19T00:45:05.389Z,3.12
2018-06-19T00:45:17.814Z,3.12
2018-06-19T00:45:30.210Z,3.12
2018-06-19T00:45:42.624Z,3.12
2018-06-19T00:45:55.304Z,3.12
2018-06-19T00:46:07.782Z,3.12
2018-06-19T00:46:20.174Z,3.12
2018-06-19T00:46:32.597Z,3.12
2018-06-19T00:46:44.984Z,3.12
2018-06-19T00:46:57.384Z,3.12
2018-06-19T00:47:09.791Z,3.12
2018-06-19T00:47:22.183Z,3.12
2018-06-19T00:47:34.620Z,3.12
2018-06-19T00:47:47.083Z,3.12
2018-06-19T00:47:59.478Z,3.12
2018-06-19T00:48:11.901Z,3.12
2018-06-19T00:48:24.320Z,3.12
2018-06-19T00:48:36.856Z,3.12
2018-06-19T00:48:49.251Z,3.12
2018-06-19T00:49:01.647Z,3.12
2018-06-19T00:49:14.076Z,3.12
2018-06-19T00:49:26.503Z,3.87
2018-06-19T00:49:38.892Z,3.87
2018-06-19T00:49:51.312Z,3.87
2018-06-19T00:50:03.738Z,3.87
2018-06-19T00:50:16.140Z,3.87
2018-06-19T00:50:28.540Z,3.87
2018-06-19T00:50:40.939Z,3.87
2018-06-19T00:50:53.324Z,3.87
2018-06-19T00:51:05.730Z,3.87
2018-06-19T00:51:18.126Z,3.87
2018-06-19T00:51:30.512Z,3.87
2018-06-19T00:51:42.969Z,3.87
2018-06-19T00:51:55.384Z,3.87
2018-06-19T00:52:07.797Z,3.87
2018-06-19T00:52:20.212Z,3.87
2018-06-19T00:52:32.646Z,3.87
2018-06-19T00:52:45.035Z,3.87
2018-06-19T00:52:57.421Z,3.87
2018-06-19T00:53:09.813Z,3.87
2018-06-19T00:53:22.210Z,3.87
2018-06-19T00:53:34.644Z,3.87
2018-06-19T00:53:47.048Z,3.87
2018-06-19T00:53:59.433Z,3.87
2018-06-19T00:54:11.897Z,3.87
2018-06-19T00:54:24.290Z,3.87
2018-06-19T00:54:36.711Z,3.87
2018-06-19T00:54:49.133Z,3.87
2018-06-19T00:55:01.535Z,3.87
2018-06-19T00:55:13.972Z,3.87
2018-06-19T00:55:26.387Z,3.87
2018-06-19T00:55:38.835Z,3.87
2018-06-19T00:55:51.242Z,3.87
2018-06-19T00:56:03.636Z,3.87
2018-06-19T00:56:16.041Z,3.87
2018-06-19T00:56:28.625Z,3.87
2018-06-19T00:56:41.720Z,3.87
2018-06-19T00:56:54.138Z,3.87
2018-06-19T00:57:06.544Z,3.87
2018-06-19T00:57:18.962Z,3.87
2018-06-19T00:57:31.359Z,3.87
2018-06-19T00:57:43.756Z,3.87
2018-06-19T00:57:56.168Z,3.87
2018-06-19T00:58:08.600Z,3.87
2018-06-19T00:58:21.022Z,3.87
2018-06-19T00:58:33.445Z,3.87
2018-06-19T00:58:45.840Z,3.87
2018-06-19T00:58:58.237Z,3.87
2018-06-19T00:59:10.642Z,3.87
2018-06-19T00:59:23.262Z,3.1
2018-06-19T00:59:35.662Z,3.1
2018-06-19T00:59:48.063Z,3.1
2018-06-19T01:00:00.491Z,3.1
2018-06-19T01:00:12.913Z,3.1
2018-06-19T01:00:25.306Z,3.1
2018-06-19T01:00:37.763Z,3.1
2018-06-19T01:00:50.205Z,3.1
2018-06-19T01:01:02.632Z,3.1
2018-06-19T01:01:15.195Z,3.1
2018-06-19T01:01:27.611Z,3.1
2018-06-19T01:01:40.040Z,3.1
2018-06-19T01:01:52.511Z,3.1
2018-06-19T01:02:04.960Z,3.1
2018-06-19T01:02:17.398Z,3.1
2018-06-19T01:02:29.777Z,3.1
2018-06-19T01:02:42.330Z,3.1
2018-06-19T01:02:54.731Z,3.1
2018-06-19T01:03:07.149Z,3.1
2018-06-19T01:03:19.556Z,3.1
2018-06-19T01:03:31.940Z,3.1
2018-06-19T01:03:44.351Z,3.1
2018-06-19T01:03:56.771Z,3.1
2018-06-19T01:04:09.231Z,3.1
2018-06-19T01:04:21.649Z,3.1
2018-06-19T01:04:34.065Z,3.1
2018-06-19T01:04:46.466Z,3.1
2018-06-19T01:04:58.855Z,3.1
2018-06-19T01:05:11.239Z,3.1
2018-06-19T01:05:23.620Z,3.1
2018-06-19T01:05:36.019Z,3.1
2018-06-19T01:05:48.414Z,3.1
2018-06-19T01:06:00.805Z,3.1
2018-06-19T01:06:13.210Z,3.1
2018-06-19T01:06:25.660Z,3.1
2018-06-19T01:06:38.202Z,3.1
2018-06-19T01:06:50.737Z,3.1
2018-06-19T01:07:03.123Z,3.1
2018-06-19T01:07:15.618Z,3.1
2018-06-19T01:07:28.022Z,3.1
2018-06-19T01:07:40.412Z,3.1
2018-06-19T01:07:52.805Z,3.1
2018-06-19T01:08:05.231Z,3.1
2018-06-19T01:08:17.637Z,3.1
2018-06-19T01:08:30.021Z,3.1
2018-06-19T01:08:42.414Z,3.1
2018-06-19T01:08:54.826Z,3.1
2018-06-19T01:09:07.233Z,3.1
2018-06-19T01:09:19.634Z,3.1
2018-06-19T01:09:32.049Z,2.96
2018-06-19T01:09:44.498Z,2.96
2018-06-19T01:09:56.911Z,2.96
2018-06-19T01:10:09.308Z,2.96
2018-06-19T01:10:21.720Z,2.96
2018-06-19T01:10:34.179Z,2.96
2018-06-19T01:10:46.562Z,2.96
2018-06-19T01:10:58.986Z,2.96
2018-06-19T01:11:11.407Z,2.96
2018-06-19T01:11:23.815Z,2.96
2018-06-19T01:11:36.214Z,2.96
2018-06-19T01:11:48.663Z,2.96
2018-06-19T01:12:01.212Z,2.96
2018-06-19T01:12:13.612Z,2.96
2018-06-19T01:12:26.034Z,2.96
2018-06-19T01:12:38.431Z,2.96
2018-06-19T01:12:50.844Z,2.96
2018-06-19T01:13:03.230Z,2.96
2018-06-19T01:13:15.626Z,2.96
2018-06-19T01:13:28.045Z,2.96
2018-06-19T01:13:40.434Z,2.96
2018-06-19T01:13:52.833Z,2.96
2018-06-19T01:14:05.261Z,2.96
2018-06-19T01:14:17.689Z,2.96
2018-06-19T01:14:30.102Z,2.96
2018-06-19T01:14:42.492Z,2.96
2018-06-19T01:14:54.892Z,2.96
2018-06-19T01:15:07.317Z,2.96
2018-06-19T01:15:19.715Z,2.96
2018-06-19T01:15:32.116Z,2.96
2018-06-19T01:15:44.543Z,2.96
2018-06-19T01:15:56.934Z,2.96
2018-06-19T01:16:09.356Z,2.96
2018-06-19T01:16:21.742Z,2.96
2018-06-19T01:16:34.145Z,2.96
2018-06-19T01:16:46.582Z,2.96
2018-06-19T01:16:59.068Z,2.96
2018-06-19T01:17:11.486Z,2.96
2018-06-19T01:17:23.899Z,2.96
2018-06-19T01:17:36.314Z,2.96
2018-06-19T01:17:48.736Z,2.96
2018-06-19T01:18:01.251Z,2.96
2018-06-19T01:18:13.640Z,2.96
2018-06-19T01:18:26.037Z,2.96
2018-06-19T01:18:38.426Z,2.96
2018-06-19T01:18:50.803Z,2.96
2018-06-19T01:19:03.185Z,2.96
2018-06-19T01:19:15.693Z,2.96
2018-06-19T01:19:28.094Z,3.01
2018-06-19T01:19:40.491Z,3.01
2018-06-19T01:19:52.882Z,3.01
2018-06-19T01:20:05.276Z,3.01
2018-06-19T01:20:17.690Z,3.01
2018-06-19T01:20:30.088Z,3.01
2018-06-19T01:20:42.474Z,3.01
2018-06-19T01:20:54.873Z,3.01
2018-06-19T01:21:07.267Z,3.01
2018-06-19T01:21:19.680Z,3.01
2018-06-19T01:21:32.248Z,3.01
2018-06-19T01:21:44.653Z,3.01
2018-06-19T01:21:57.105Z,3.01
2018-06-19T01:22:09.520Z,3.01
2018-06-19T01:22:21.910Z,3.01
2018-06-19T01:22:34.318Z,3.01
2018-06-19T01:22:46.702Z,3.01
2018-06-19T01:22:59.093Z,3.01
2018-06-19T01:23:11.505Z,3.01
2018-06-19T01:23:23.885Z,3.01
2018-06-19T01:23:36.284Z,3.01
2018-06-19T01:23:48.671Z,3.01
2018-06-19T01:24:01.225Z,3.01
2018-06-19T01:24:13.634Z,3.01
2018-06-19T01:24:26.065Z,3.01
2018-06-19T01:24:38.459Z,3.01
2018-06-19T01:24:50.859Z,3.01
2018-06-19T01:25:03.258Z,3.01
2018-06-19T01:25:15.671Z,3.01
2018-06-19T01:25:28.224Z,3.01
2018-06-19T01:25:40.757Z,3.01
2018-06-19T01:25:53.154Z,3.01
2018-06-19T01:26:05.546Z,3.01
2018-06-19T01:26:17.936Z,3.01
2018-06-19T01:26:30.332Z,3.01
2018-06-19T01:26:42.742Z,3.01
2018-06-19T01:26:55.147Z,3.01
2018-06-19T01:27:07.817Z,3.01
2018-06-19T01:27:20.377Z,3.01
2018-06-19T01:27:32.782Z,3.01
2018-06-19T01:27:45.170Z,3.01
2018-06-19T01:27:57.580Z,3.01
2018-06-19T01:28:09.984Z,3.01
2018-06-19T01:28:22.441Z,3.01
2018-06-19T01:28:34.998Z,3.01
2018-06-19T01:28:48.053Z,3.01
2018-06-19T01:29:00.464Z,3.01
2018-06-19T01:29:12.862Z,3.01
2018-06-19T01:29:25.264Z,3.3
2018-06-19T01:29:37.662Z,3.3
2018-06-19T01:29:50.077Z,3.3
2018-06-19T01:30:02.490Z,3.3
2018-06-19T01:30:14.914Z,3.3
2018-06-19T01:30:27.318Z,3.3
2018-06-19T01:30:39.711Z,3.3
2018-06-19T01:30:52.129Z,3.3
2018-06-19T01:31:04.515Z,3.3
2018-06-19T01:31:16.975Z,3.3
2018-06-19T01:31:29.373Z,3.3
2018-06-19T01:31:41.810Z,3.3
2018-06-19T01:31:54.225Z,3.3
2018-06-19T01:32:06.616Z,3.3
2018-06-19T01:32:19.077Z,3.3
2018-06-19T01:32:31.458Z,3.3
2018-06-19T01:32:43.860Z,3.3
2018-06-19T01:32:56.266Z,3.3
2018-06-19T01:33:08.661Z,3.3
2018-06-19T01:33:21.065Z,3.3
2018-06-19T01:33:33.867Z,3.3
2018-06-19T01:33:46.286Z,3.3
2018-06-19T01:33:58.686Z,3.3
2018-06-19T01:34:11.073Z,3.3
2018-06-19T01:34:23.468Z,3.3
2018-06-19T01:34:35.873Z,3.3
2018-06-19T01:34:48.278Z,3.3
2018-06-19T01:35:00.657Z,3.3
2018-06-19T01:35:13.089Z,3.3
2018-06-19T01:35:25.499Z,3.3
2018-06-19T01:35:37.898Z,3.3
2018-06-19T01:35:50.302Z,3.3
2018-06-19T01:36:02.707Z,3.3
2018-06-19T01:36:15.125Z,3.3
2018-06-19T01:36:27.517Z,3.3
2018-06-19T01:36:39.912Z,3.3
2018-06-19T01:36:52.323Z,3.3
2018-06-19T01:37:04.736Z,3.3
2018-06-19T01:37:17.217Z,3.3
2018-06-19T01:37:29.617Z,3.3
2018-06-19T01:37:42.106Z,3.3
2018-06-19T01:37:54.669Z,3.3
2018-06-19T01:38:08.132Z,3.3
2018-06-19T01:38:22.036Z,3.3
2018-06-19T01:38:34.474Z,3.3
2018-06-19T01:38:46.859Z,3.3
2018-06-19T01:38:59.270Z,3.3
2018-06-19T01:39:11.674Z,3.3
2018-06-19T01:39:24.074Z,3.44
2018-06-19T01:39:36.469Z,3.44
2018-06-19T01:39:48.857Z,3.44
2018-06-19T01:40:01.288Z,3.44
2018-06-19T01:40:13.683Z,3.44
2018-06-19T01:40:26.086Z,3.44
2018-06-19T01:40:38.515Z,3.44
2018-06-19T01:40:50.917Z,3.44
2018-06-19T01:41:03.494Z,3.44
2018-06-19T01:41:15.893Z,3.44
2018-06-19T01:41:28.294Z,3.44
2018-06-19T01:41:40.693Z,3.44
2018-06-19T01:41:53.147Z,3.44
2018-06-19T01:42:05.612Z,3.44
2018-06-19T01:42:18.074Z,3.44
2018-06-19T01:42:30.474Z,3.44
2018-06-19T01:42:42.890Z,3.44
2018-06-19T01:42:55.291Z,3.44
2018-06-19T01:43:07.713Z,3.44
2018-06-19T01:43:20.121Z,3.44
2018-06-19T01:43:32.521Z,3.44
2018-06-19T01:43:45.085Z,3.44
2018-06-19T01:43:57.503Z,3.44
2018-06-19T01:44:09.895Z,3.44
2018-06-19T01:44:22.318Z,3.44
2018-06-19T01:44:34.695Z,3.44
2018-06-19T01:44:47.087Z,3.44
2018-06-19T01:44:59.499Z,3.44
2018-06-19T01:45:11.904Z,3.44
2018-06-19T01:45:24.301Z,3.44
2018-06-19T01:45:36.689Z,3.44
2018-06-19T01:45:49.093Z,3.44
2018-06-19T01:46:01.661Z,3.44
2018-06-19T01:46:14.044Z,3.44
2018-06-19T01:46:26.441Z,3.44
2018-06-19T01:46:38.841Z,3.44
2018-06-19T01:46:51.264Z,3.44
2018-06-19T01:47:03.686Z,3.44
2018-06-19T01:47:16.108Z,3.44
2018-06-19T01:47:28.526Z,3.44
2018-06-19T01:47:40.917Z,3.44
2018-06-19T01:47:53.306Z,3.44
2018-06-19T01:48:05.703Z,3.44
2018-06-19T01:48:18.093Z,3.44
2018-06-19T01:48:30.485Z,3.44
2018-06-19T01:48:43.033Z,3.44
2018-06-19T01:48:55.468Z,3.44
2018-06-19T01:49:07.923Z,3.44
2018-06-19T01:49:20.336Z,3.44
2018-06-19T01:49:32.749Z,3.92
2018-06-19T01:49:45.163Z,3.92
2018-06-19T01:49:57.571Z,3.92
2018-06-19T01:50:09.959Z,3.92
2018-06-19T01:50:22.373Z,3.92
2018-06-19T01:50:34.771Z,3.92
2018-06-19T01:50:47.156Z,3.92
2018-06-19T01:50:59.564Z,3.92
2018-06-19T01:51:11.983Z,3.92
2018-06-19T01:51:24.386Z,3.92
2018-06-19T01:51:36.781Z,3.92
2018-06-19T01:51:49.171Z,3.92
2018-06-19T01:52:01.553Z,3.92
2018-06-19T01:52:13.957Z,3.92
2018-06-19T01:52:26.372Z,3.92
2018-06-19T01:52:38.762Z,3.92
2018-06-19T01:52:51.150Z,3.92
2018-06-19T01:53:03.566Z,3.92
2018-06-19T01:53:15.939Z,3.92
2018-06-19T01:53:28.328Z,3.92
2018-06-19T01:53:40.748Z,3.92
2018-06-19T01:53:53.138Z,3.92
2018-06-19T01:54:05.524Z,3.92
2018-06-19T01:54:17.919Z,3.92
2018-06-19T01:54:30.319Z,3.92
2018-06-19T01:54:42.706Z,3.92
2018-06-19T01:54:55.125Z,3.92
2018-06-19T01:55:07.538Z,3.92
2018-06-19T01:55:19.930Z,3.92
2018-06-19T01:55:32.317Z,3.92
2018-06-19T01:55:44.722Z,3.92
2018-06-19T01:55:57.104Z,3.92
2018-06-19T01:56:09.496Z,3.92
2018-06-19T01:56:21.902Z,3.92
2018-06-19T01:56:34.309Z,3.92
2018-06-19T01:56:46.725Z,3.92
2018-06-19T01:56:59.131Z,3.92
2018-06-19T01:57:11.550Z,3.92
2018-06-19T01:57:24.024Z,3.92
2018-06-19T01:57:36.421Z,3.92
2018-06-19T01:57:48.800Z,3.92
2018-06-19T01:58:01.199Z,3.92
2018-06-19T01:58:13.587Z,3.92
2018-06-19T01:58:26.022Z,3.92
2018-06-19T01:58:38.498Z,3.92
2018-06-19T01:58:50.894Z,3.92
2018-06-19T01:59:03.288Z,3.92
2018-06-19T01:59:15.681Z,3.92
2018-06-19T01:59:28.068Z,4.1
2018-06-19T01:59:40.469Z,4.1
2018-06-19T01:59:53.001Z,4.1
2018-06-19T02:00:05.386Z,4.1
2018-06-19T02:00:17.778Z,4.1
2018-06-19T02:00:30.204Z,4.1
2018-06-19T02:00:42.623Z,4.1
2018-06-19T02:00:55.042Z,4.1
2018-06-19T02:01:07.630Z,4.1
2018-06-19T02:01:20.104Z,4.1
2018-06-19T02:01:32.513Z,4.1
2018-06-19T02:01:44.915Z,4.1
2018-06-19T02:01:57.356Z,4.1
2018-06-19T02:02:09.849Z,4.1
2018-06-19T02:02:22.258Z,4.1
2018-06-19T02:02:34.733Z,4.1
2018-06-19T02:02:47.244Z,4.1
2018-06-19T02:02:59.669Z,4.1
2018-06-19T02:03:12.078Z,4.1
2018-06-19T02:03:24.495Z,4.1
2018-06-19T02:03:36.886Z,4.1
2018-06-19T02:03:49.293Z,4.1
2018-06-19T02:04:01.708Z,4.1
2018-06-19T02:04:14.106Z,4.1
2018-06-19T02:04:26.558Z,4.1
2018-06-19T02:04:38.953Z,4.1
2018-06-19T02:04:51.367Z,4.1
2018-06-19T02:05:03.763Z,4.1
2018-06-19T02:05:16.156Z,4.1
2018-06-19T02:05:28.573Z,4.1
2018-06-19T02:05:41.007Z,4.1
2018-06-19T02:05:53.411Z,4.1
2018-06-19T02:06:05.818Z,4.1
2018-06-19T02:06:18.221Z,4.1
2018-06-19T02:06:30.753Z,4.1
2018-06-19T02:06:43.162Z,4.1
2018-06-19T02:06:55.655Z,4.1
2018-06-19T02:07:08.077Z,4.1
2018-06-19T02:07:20.565Z,4.1
2018-06-19T02:07:32.947Z,4.1
2018-06-19T02:07:45.333Z,4.1
2018-06-19T02:07:57.718Z,4.1
2018-06-19T02:08:10.105Z,4.1
2018-06-19T02:08:22.487Z,4.1
2018-06-19T02:08:34.955Z,4.1
2018-06-19T02:08:47.373Z,4.1
2018-06-19T02:08:59.793Z,4.1
2018-06-19T02:09:12.215Z,4.1
2018-06-19T02:09:24.627Z,4.35
2018-06-19T02:09:37.007Z,4.35
2018-06-19T02:09:49.472Z,4.35
2018-06-19T02:10:01.873Z,4.35
2018-06-19T02:10:14.288Z,4.35
2018-06-19T02:10:26.689Z,4.35
2018-06-19T02:10:39.090Z,4.35
2018-06-19T02:10:51.492Z,4.35
2018-06-19T02:11:03.933Z,4.35
2018-06-19T02:11:16.471Z,4.35
2018-06-19T02:11:28.871Z,4.35
2018-06-19T02:11:41.291Z,4.35
2018-06-19T02:11:53.703Z,4.35
2018-06-19T02:12:06.127Z,4.35
2018-06-19T02:12:18.555Z,4.35
2018-06-19T02:12:30.961Z,4.35
2018-06-19T02:12:43.356Z,4.35
2018-06-19T02:12:55.740Z,4.35
2018-06-19T02:13:08.160Z,4.35
2018-06-19T02:13:20.547Z,4.35
2018-06-19T02:13:32.930Z,4.35
2018-06-19T02:13:45.325Z,4.35
2018-06-19T02:13:57.745Z,4.35
2018-06-19T02:14:10.161Z,4.35
2018-06-19T02:14:22.558Z,4.35
2018-06-19T02:14:35.010Z,4.35
2018-06-19T02:14:47.418Z,4.35
2018-06-19T02:14:59.852Z,4.35
2018-06-19T02:15:12.324Z,4.35
2018-06-19T02:15:24.751Z,4.35
2018-06-19T02:15:37.148Z,4.35
2018-06-19T02:15:49.559Z,4.35
2018-06-19T02:16:01.977Z,4.35
2018-06-19T02:16:14.371Z,4.35
2018-06-19T02:16:26.774Z,4.35
2018-06-19T02:16:39.173Z,4.35
2018-06-19T02:16:51.562Z,4.35
2018-06-19T02:17:03.974Z,4.35
2018-06-19T02:17:16.368Z,4.35
2018-06-19T02:17:28.791Z,4.35
2018-06-19T02:17:41.193Z,4.35
2018-06-19T02:17:53.758Z,4.35
2018-06-19T02:18:06.140Z,4.35
2018-06-19T02:18:18.545Z,4.35
2018-06-19T02:18:30.961Z,4.35
2018-06-19T02:18:43.386Z,4.35
2018-06-19T02:18:55.803Z,4.35
2018-06-19T02:19:08.224Z,4.35
2018-06-19T02:19:20.767Z,4.35
2018-06-19T02:19:33.205Z,4.25
2018-06-19T02:19:45.596Z,4.25
2018-06-19T02:19:58.031Z,4.25
2018-06-19T02:20:10.438Z,4.25
2018-06-19T02:20:22.845Z,4.25
2018-06-19T02:20:35.244Z,4.25
2018-06-19T02:20:47.630Z,4.25
2018-06-19T02:21:00.039Z,4.25
2018-06-19T02:21:12.445Z,4.25
2018-06-19T02:21:24.853Z,4.25
2018-06-19T02:21:37.277Z,4.25
2018-06-19T02:21:49.679Z,4.25
2018-06-19T02:22:02.089Z,4.25
2018-06-19T02:22:14.492Z,4.25
2018-06-19T02:22:26.901Z,4.25
2018-06-19T02:22:39.293Z,4.25
2018-06-19T02:22:51.691Z,4.25
2018-06-19T02:23:04.262Z,4.25
2018-06-19T02:23:16.674Z,4.25
2018-06-19T02:23:29.077Z,4.25
2018-06-19T02:23:41.464Z,4.25
2018-06-19T02:23:54.018Z,4.25
2018-06-19T02:24:06.452Z,4.25
2018-06-19T02:24:18.839Z,4.25
2018-06-19T02:24:31.232Z,4.25
2018-06-19T02:24:43.639Z,4.25
2018-06-19T02:24:56.153Z,4.25
2018-06-19T02:25:08.618Z,4.25
2018-06-19T02:25:21.042Z,4.25
2018-06-19T02:25:33.449Z,4.25
2018-06-19T02:25:45.857Z,4.25
2018-06-19T02:25:58.248Z,4.25
2018-06-19T02:26:10.666Z,4.25
2018-06-19T02:26:23.075Z,4.25
2018-06-19T02:26:35.474Z,4.25
2018-06-19T02:26:47.873Z,4.25
2018-06-19T02:27:00.451Z,4.25
2018-06-19T02:27:13.058Z,4.25
2018-06-19T02:27:25.461Z,4.25
2018-06-19T02:27:37.853Z,4.25
2018-06-19T02:27:50.231Z,4.25
2018-06-19T02:28:02.621Z,4.25
2018-06-19T02:28:15.120Z,4.25
2018-06-19T02:28:27.511Z,4.25
2018-06-19T02:28:39.913Z,4.25
2018-06-19T02:28:52.328Z,4.25
2018-06-19T02:29:04.721Z,4.25
2018-06-19T02:29:17.238Z,4.25
2018-06-19T02:29:29.649Z,4.5
2018-06-19T02:29:42.042Z,4.5
2018-06-19T02:29:54.485Z,4.5
2018-06-19T02:30:06.931Z,4.5
2018-06-19T02:30:19.380Z,4.5
2018-06-19T02:30:31.805Z,4.5
2018-06-19T02:30:44.287Z,4.5
2018-06-19T02:30:56.718Z,4.5
2018-06-19T02:31:09.172Z,4.5
2018-06-19T02:31:21.615Z,4.5
2018-06-19T02:31:34.023Z,4.5
2018-06-19T02:31:46.458Z,4.5
2018-06-19T02:31:58.879Z,4.5
2018-06-19T02:32:11.294Z,4.5
2018-06-19T02:32:23.721Z,4.5
2018-06-19T02:32:36.140Z,4.5
2018-06-19T02:32:48.551Z,4.5
2018-06-19T02:33:00.992Z,4.5
2018-06-19T02:33:13.405Z,4.5
2018-06-19T02:33:25.832Z,4.5
2018-06-19T02:33:38.291Z,4.5
2018-06-19T02:33:50.735Z,4.5
2018-06-19T02:34:03.168Z,4.5
2018-06-19T02:34:15.599Z,4.5
2018-06-19T02:34:28.042Z,4.5
2018-06-19T02:34:40.462Z,4.5
2018-06-19T02:34:52.869Z,4.5
2018-06-19T02:35:05.299Z,4.5
2018-06-19T02:35:17.698Z,4.5
2018-06-19T02:35:30.097Z,4.5
2018-06-19T02:35:42.540Z,4.5
2018-06-19T02:35:54.952Z,4.5
2018-06-19T02:36:07.376Z,4.5
2018-06-19T02:36:19.791Z,4.5
2018-06-19T02:36:32.194Z,4.5
2018-06-19T02:36:44.624Z,4.5
2018-06-19T02:36:57.080Z,4.5
2018-06-19T02:37:09.486Z,4.5
2018-06-19T02:37:21.922Z,4.5
2018-06-19T02:37:34.333Z,4.5
2018-06-19T02:37:46.745Z,4.5
2018-06-19T02:37:59.144Z,4.5
2018-06-19T02:38:11.554Z,4.5
2018-06-19T02:38:23.980Z,4.5
2018-06-19T02:38:36.425Z,4.5
2018-06-19T02:38:48.840Z,4.5
2018-06-19T02:39:01.284Z,4.5
2018-06-19T02:39:13.754Z,4.5
2018-06-19T02:39:26.190Z,4.47
2018-06-19T02:39:38.599Z,4.47
2018-06-19T02:39:51.046Z,4.47
2018-06-19T02:40:03.504Z,4.47
2018-06-19T02:40:15.994Z,4.47
2018-06-19T02:40:28.520Z,4.47
2018-06-19T02:40:40.946Z,4.47
2018-06-19T02:40:53.380Z,4.47
2018-06-19T02:41:05.845Z,4.47
2018-06-19T02:41:18.256Z,4.47
2018-06-19T02:41:30.789Z,4.47
2018-06-19T02:41:43.187Z,4.47
2018-06-19T02:41:55.717Z,4.47
2018-06-19T02:42:08.155Z,4.47
2018-06-19T02:42:20.642Z,4.47
2018-06-19T02:42:33.050Z,4.47
2018-06-19T02:42:45.530Z,4.47
2018-06-19T02:42:57.926Z,4.47
2018-06-19T02:43:10.320Z,4.47
2018-06-19T02:43:22.728Z,4.47
2018-06-19T02:43:35.141Z,4.47
2018-06-19T02:43:47.544Z,4.47
2018-06-19T02:43:59.958Z,4.47
2018-06-19T02:44:12.381Z,4.47
2018-06-19T02:44:24.883Z,4.47
2018-06-19T02:44:37.300Z,4.47
2018-06-19T02:44:49.733Z,4.47
2018-06-19T02:45:02.170Z,4.47
2018-06-19T02:45:14.608Z,4.47
2018-06-19T02:45:27.008Z,4.47
2018-06-19T02:45:39.431Z,4.47
2018-06-19T02:45:51.843Z,4.47
2018-06-19T02:46:04.345Z,4.47
2018-06-19T02:46:16.738Z,4.47
2018-06-19T02:46:29.187Z,4.47
2018-06-19T02:46:41.573Z,4.47
2018-06-19T02:46:54.013Z,4.47
2018-06-19T02:47:06.431Z,4.47
2018-06-19T02:47:18.846Z,4.47
2018-06-19T02:47:31.261Z,4.47
2018-06-19T02:47:43.675Z,4.47